Pagrindinis puslapis
METAR-TAF:

METAR-TAF

Oro uostai :

Arišas, Egiptas

platuma: 31-05N, ilguma: 033-49E, Aukštis: 31 m

METAR: trūkstamas

Laikas: 08:52 (06:52 UTC)

Prognozė

Ataskaita buvo paskelbta 1 valandą ir 52 minutes, ne 05:00 UTC
Prognozė galioja nuo 02 metu 06 UTC su 03 metu 12 UTC
Vėjas 12 kt iš Šiaurės/Šiaurės Vakarų
Matomumas 10 km arba daugiau
Išsisklaidę debesys ne aukštis 2000 ft
Tapsmas
nuo 02 metu 18 UTC su 02 metu 20 UTC
Vėjas 3 kt nuo kintamojo kryptimis
Tapsmas
nuo 03 metu 07 UTC su 03 metu 09 UTC
Vėjas 10 kt iš Šiaurės/Šiaurės Rytų

TAF: HEAR 020500Z 0206/0312 33012KT 9999 SCT020 BECMG 0218/0220 VRB03KT BECMG 0307/0309 02010KT

Orai ataskaitas ir orų prognozės (METAR, TAF).

turimą stotys yra geltonos ir raudonos taškus žemėlapyje.

Perkelti pele per norėdami pamatyti stoties vardą.

Tada spustelėkite, norėdami matyti oro stebėjimo ir prognozės.

Norėdami pakeisti žemėlapį: spustelėkite ant žalios mygtukų su juodo kryžiaus žemyn,; žalią mygtuką su brūkšneliu, jei norite nutolinti; arba žalių rodyklių gretimoms žemėlapius.


METAR-TAF: